sensor_id;sensor_type;location;lat;lon;timestamp;pressure;altitude;pressure_sealevel;temperature;humidity
68525;BME280;55524;51.380;13.372;2024-03-25T00:01:41;99016.53;;;4.84;100.00
68525;BME280;55524;51.380;13.372;2024-03-25T00:04:07;99022.78;;;4.80;100.00
68525;BME280;55524;51.380;13.372;2024-03-25T00:06:33;99017.47;;;4.82;100.00
68525;BME280;55524;51.380;13.372;2024-03-25T00:09:04;99018.41;;;4.81;100.00
68525;BME280;55524;51.380;13.372;2024-03-25T00:11:31;99027.22;;;4.78;100.00
68525;BME280;55524;51.380;13.372;2024-03-25T00:13:57;99024.75;;;4.74;100.00
68525;BME280;55524;51.380;13.372;2024-03-25T00:16:24;99027.47;;;4.71;100.00
68525;BME280;55524;51.380;13.372;2024-03-25T00:18:50;99023.22;;;4.68;100.00
68525;BME280;55524;51.380;13.372;2024-03-25T00:21:17;99030.06;;;4.72;100.00
68525;BME280;55524;51.380;13.372;2024-03-25T00:23:43;99030.25;;;4.67;100.00
68525;BME280;55524;51.380;13.372;2024-03-25T00:26:09;99028.63;;;4.63;100.00
68525;BME280;55524;51.380;13.372;2024-03-25T00:28:35;99029.34;;;4.67;100.00
68525;BME280;55524;51.380;13.372;2024-03-25T00:31:02;99037.94;;;4.71;100.00
68525;BME280;55524;51.380;13.372;2024-03-25T00:33:28;99040.56;;;4.71;100.00
68525;BME280;55524;51.380;13.372;2024-03-25T00:35:54;99038.03;;;4.69;100.00
68525;BME280;55524;51.380;13.372;2024-03-25T00:38:20;99043.16;;;4.72;100.00
68525;BME280;55524;51.380;13.372;2024-03-25T00:40:47;99032.63;;;4.74;100.00
68525;BME280;55524;51.380;13.372;2024-03-25T00:43:13;99042.97;;;4.77;100.00
68525;BME280;55524;51.380;13.372;2024-03-25T00:45:40;99036.88;;;4.76;100.00
68525;BME280;55524;51.380;13.372;2024-03-25T00:48:07;99039.34;;;4.81;100.00
68525;BME280;55524;51.380;13.372;2024-03-25T00:50:34;99038.53;;;4.79;100.00
68525;BME280;55524;51.380;13.372;2024-03-25T00:53:00;99046.34;;;4.80;100.00
68525;BME280;55524;51.380;13.372;2024-03-25T00:55:26;99048.13;;;4.78;100.00
68525;BME280;55524;51.380;13.372;2024-03-25T00:57:52;99047.19;;;4.81;100.00
68525;BME280;55524;51.380;13.372;2024-03-25T01:00:20;99049.00;;;4.79;100.00
68525;BME280;55524;51.380;13.372;2024-03-25T01:02:46;99050.00;;;4.75;100.00
68525;BME280;55524;51.380;13.372;2024-03-25T01:05:13;99048.38;;;4.72;100.00
68525;BME280;55524;51.380;13.372;2024-03-25T01:07:39;99054.63;;;4.68;100.00
68525;BME280;55524;51.380;13.372;2024-03-25T01:10:06;99052.97;;;4.65;100.00
68525;BME280;55524;51.380;13.372;2024-03-25T01:12:32;99054.84;;;4.62;100.00
68525;BME280;55524;51.380;13.372;2024-03-25T01:14:58;99060.13;;;4.60;100.00
68525;BME280;55524;51.380;13.372;2024-03-25T01:17:25;99059.31;;;4.58;100.00
68525;BME280;55524;51.380;13.372;2024-03-25T01:19:51;99058.38;;;4.61;100.00
68525;BME280;55524;51.380;13.372;2024-03-25T01:22:17;99053.31;;;4.56;100.00
68525;BME280;55524;51.380;13.372;2024-03-25T01:24:43;99072.41;;;4.58;100.00
68525;BME280;55524;51.380;13.372;2024-03-25T01:27:10;99057.63;;;4.57;100.00
68525;BME280;55524;51.380;13.372;2024-03-25T01:29:36;99068.19;;;4.54;100.00
68525;BME280;55524;51.380;13.372;2024-03-25T01:32:02;99068.41;;;4.48;100.00
68525;BME280;55524;51.380;13.372;2024-03-25T01:34:30;99069.19;;;4.50;100.00
68525;BME280;55524;51.380;13.372;2024-03-25T01:36:56;99072.72;;;4.49;100.00
68525;BME280;55524;51.380;13.372;2024-03-25T01:39:23;99072.66;;;4.51;100.00
68525;BME280;55524;51.380;13.372;2024-03-25T01:41:50;99071.03;;;4.48;100.00
68525;BME280;55524;51.380;13.372;2024-03-25T01:44:17;99067.59;;;4.46;100.00
68525;BME280;55524;51.380;13.372;2024-03-25T01:46:43;99079.72;;;4.49;100.00
68525;BME280;55524;51.380;13.372;2024-03-25T01:49:10;99084.91;;;4.50;100.00
68525;BME280;55524;51.380;13.372;2024-03-25T01:51:38;99080.59;;;4.49;100.00
68525;BME280;55524;51.380;13.372;2024-03-25T01:54:05;99074.28;;;4.55;100.00
68525;BME280;55524;51.380;13.372;2024-03-25T01:56:33;99090.03;;;4.53;100.00
68525;BME280;55524;51.380;13.372;2024-03-25T01:59:01;99087.41;;;4.53;100.00
68525;BME280;55524;51.380;13.372;2024-03-25T02:01:28;99084.72;;;4.55;100.00
68525;BME280;55524;51.380;13.372;2024-03-25T02:03:55;99085.53;;;4.57;100.00
68525;BME280;55524;51.380;13.372;2024-03-25T02:06:23;99084.69;;;4.56;100.00
68525;BME280;55524;51.380;13.372;2024-03-25T02:08:52;99088.09;;;4.58;100.00
68525;BME280;55524;51.380;13.372;2024-03-25T02:11:19;99102.09;;;4.57;100.00
68525;BME280;55524;51.380;13.372;2024-03-25T02:13:45;99094.25;;;4.57;100.00
68525;BME280;55524;51.380;13.372;2024-03-25T02:16:12;99102.94;;;4.58;100.00
68525;BME280;55524;51.380;13.372;2024-03-25T02:18:38;99104.63;;;4.60;100.00
68525;BME280;55524;51.380;13.372;2024-03-25T02:21:04;99098.63;;;4.57;100.00
68525;BME280;55524;51.380;13.372;2024-03-25T02:23:32;99102.41;;;4.48;100.00
68525;BME280;55524;51.380;13.372;2024-03-25T02:26:00;99111.16;;;4.47;100.00
68525;BME280;55524;51.380;13.372;2024-03-25T02:28:26;99112.13;;;4.44;100.00
68525;BME280;55524;51.380;13.372;2024-03-25T02:30:52;99120.91;;;4.43;100.00
68525;BME280;55524;51.380;13.372;2024-03-25T02:33:19;99127.06;;;4.41;100.00
68525;BME280;55524;51.380;13.372;2024-03-25T02:35:45;99118.31;;;4.42;100.00
68525;BME280;55524;51.380;13.372;2024-03-25T02:38:11;99118.38;;;4.40;100.00
68525;BME280;55524;51.380;13.372;2024-03-25T02:40:39;99120.94;;;4.42;100.00
68525;BME280;55524;51.380;13.372;2024-03-25T02:43:05;99140.09;;;4.42;100.00
68525;BME280;55524;51.380;13.372;2024-03-25T02:45:33;99131.38;;;4.42;100.00
68525;BME280;55524;51.380;13.372;2024-03-25T02:47:59;99136.63;;;4.42;100.00
68525;BME280;55524;51.380;13.372;2024-03-25T02:50:26;99130.47;;;4.43;100.00
68525;BME280;55524;51.380;13.372;2024-03-25T02:52:53;99147.84;;;4.46;100.00
68525;BME280;55524;51.380;13.372;2024-03-25T02:55:19;99140.75;;;4.49;100.00
68525;BME280;55524;51.380;13.372;2024-03-25T02:57:45;99143.28;;;4.51;100.00
68525;BME280;55524;51.380;13.372;2024-03-25T03:00:12;99146.75;;;4.51;100.00
68525;BME280;55524;51.380;13.372;2024-03-25T03:02:39;99160.75;;;4.50;100.00
68525;BME280;55524;51.380;13.372;2024-03-25T03:05:06;99164.44;;;4.44;100.00
68525;BME280;55524;51.380;13.372;2024-03-25T03:07:32;99161.84;;;4.43;100.00
68525;BME280;55524;51.380;13.372;2024-03-25T03:09:58;99172.31;;;4.43;100.00
68525;BME280;55524;51.380;13.372;2024-03-25T03:12:24;99166.97;;;4.48;100.00
68525;BME280;55524;51.380;13.372;2024-03-25T03:14:51;99166.97;;;4.48;100.00
68525;BME280;55524;51.380;13.372;2024-03-25T03:17:17;99166.91;;;4.49;100.00
68525;BME280;55524;51.380;13.372;2024-03-25T03:19:43;99170.22;;;4.54;100.00
68525;BME280;55524;51.380;13.372;2024-03-25T03:22:09;99177.38;;;4.49;100.00
68525;BME280;55524;51.380;13.372;2024-03-25T03:24:35;99190.22;;;4.55;100.00
68525;BME280;55524;51.380;13.372;2024-03-25T03:27:02;99185.72;;;4.60;100.00
68525;BME280;55524;51.380;13.372;2024-03-25T03:29:28;99195.31;;;4.60;100.00
68525;BME280;55524;51.380;13.372;2024-03-25T03:31:55;99183.00;;;4.63;100.00
68525;BME280;55524;51.380;13.372;2024-03-25T03:34:22;99191.72;;;4.62;100.00
68525;BME280;55524;51.380;13.372;2024-03-25T03:36:48;99185.50;;;4.66;100.00
68525;BME280;55524;51.380;13.372;2024-03-25T03:39:16;99195.19;;;4.63;100.00
68525;BME280;55524;51.380;13.372;2024-03-25T03:41:42;99197.69;;;4.67;100.00
68525;BME280;55524;51.380;13.372;2024-03-25T03:44:08;99197.47;;;4.74;100.00
68525;BME280;55524;51.380;13.372;2024-03-25T03:46:35;99193.94;;;4.75;100.00
68525;BME280;55524;51.380;13.372;2024-03-25T03:49:01;99195.66;;;4.76;100.00
68525;BME280;55524;51.380;13.372;2024-03-25T03:51:28;99206.16;;;4.74;100.00
68525;BME280;55524;51.380;13.372;2024-03-25T03:53:54;99194.81;;;4.75;100.00
68525;BME280;55524;51.380;13.372;2024-03-25T03:56:20;99205.41;;;4.71;100.00
68525;BME280;55524;51.380;13.372;2024-03-25T03:58:46;99204.53;;;4.72;100.00
68525;BME280;55524;51.380;13.372;2024-03-25T04:01:17;99207.00;;;4.75;100.00
68525;BME280;55524;51.380;13.372;2024-03-25T04:03:43;99214.88;;;4.75;100.00
68525;BME280;55524;51.380;13.372;2024-03-25T04:06:12;99213.16;;;4.74;100.00
68525;BME280;55524;51.380;13.372;2024-03-25T04:08:39;99225.25;;;4.78;100.00
68525;BME280;55524;51.380;13.372;2024-03-25T04:11:06;99223.72;;;4.71;100.00
68525;BME280;55524;51.380;13.372;2024-03-25T04:13:36;99227.19;;;4.71;100.00
68525;BME280;55524;51.380;13.372;2024-03-25T04:16:06;99223.59;;;4.75;100.00
68525;BME280;55524;51.380;13.372;2024-03-25T04:18:33;99235.03;;;4.71;100.00
68525;BME280;55524;51.380;13.372;2024-03-25T04:21:00;99227.25;;;4.69;100.00
68525;BME280;55524;51.380;13.372;2024-03-25T04:23:26;99235.94;;;4.72;100.00
68525;BME280;55524;51.380;13.372;2024-03-25T04:25:53;99234.00;;;4.77;100.00
68525;BME280;55524;51.380;13.372;2024-03-25T04:28:20;99244.47;;;4.77;100.00
68525;BME280;55524;51.380;13.372;2024-03-25T04:30:53;99241.00;;;4.76;100.00
68525;BME280;55524;51.380;13.372;2024-03-25T04:33:20;99260.34;;;4.71;100.00
68525;BME280;55524;51.380;13.372;2024-03-25T04:35:47;99256.72;;;4.75;100.00
68525;BME280;55524;51.380;13.372;2024-03-25T04:38:16;99274.25;;;4.73;100.00
68525;BME280;55524;51.380;13.372;2024-03-25T04:40:43;99277.88;;;4.68;100.00
68525;BME280;55524;51.380;13.372;2024-03-25T04:43:10;99275.19;;;4.72;100.00
68525;BME280;55524;51.380;13.372;2024-03-25T04:45:36;99283.31;;;4.62;100.00
68525;BME280;55524;51.380;13.372;2024-03-25T04:48:03;99283.44;;;4.59;100.00
68525;BME280;55524;51.380;13.372;2024-03-25T04:50:30;99282.66;;;4.56;100.00
68525;BME280;55524;51.380;13.372;2024-03-25T04:52:56;99292.13;;;4.60;100.00
68525;BME280;55524;51.380;13.372;2024-03-25T04:55:22;99291.22;;;4.61;100.00
68525;BME280;55524;51.380;13.372;2024-03-25T04:57:49;99296.38;;;4.62;100.00
68525;BME280;55524;51.380;13.372;2024-03-25T05:00:15;99302.53;;;4.61;100.00
68525;BME280;55524;51.380;13.372;2024-03-25T05:02:42;99289.50;;;4.60;100.00
68525;BME280;55524;51.380;13.372;2024-03-25T05:05:08;99296.59;;;4.56;100.00
68525;BME280;55524;51.380;13.372;2024-03-25T05:07:35;99297.28;;;4.61;100.00
68525;BME280;55524;51.380;13.372;2024-03-25T05:10:02;99299.00;;;4.62;100.00
68525;BME280;55524;51.380;13.372;2024-03-25T05:12:28;99311.28;;;4.60;100.00
68525;BME280;55524;51.380;13.372;2024-03-25T05:14:56;99311.31;;;4.59;100.00
68525;BME280;55524;51.380;13.372;2024-03-25T05:17:23;99312.13;;;4.61;100.00
68525;BME280;55524;51.380;13.372;2024-03-25T05:19:49;99315.75;;;4.57;100.00
68525;BME280;55524;51.380;13.372;2024-03-25T05:22:15;99321.69;;;4.62;100.00
68525;BME280;55524;51.380;13.372;2024-03-25T05:24:42;99321.84;;;4.57;100.00
68525;BME280;55524;51.380;13.372;2024-03-25T05:27:08;99317.47;;;4.58;100.00
68525;BME280;55524;51.380;13.372;2024-03-25T05:29:34;99329.69;;;4.57;100.00
68525;BME280;55524;51.380;13.372;2024-03-25T05:32:01;99328.84;;;4.57;100.00
68525;BME280;55524;51.380;13.372;2024-03-25T05:34:29;99327.91;;;4.59;100.00
68525;BME280;55524;51.380;13.372;2024-03-25T05:36:56;99333.06;;;4.61;100.00
68525;BME280;55524;51.380;13.372;2024-03-25T05:39:22;99344.34;;;4.63;100.00
68525;BME280;55524;51.380;13.372;2024-03-25T05:41:49;99347.16;;;4.57;100.00
68525;BME280;55524;51.380;13.372;2024-03-25T05:44:15;99348.84;;;4.59;100.00
68525;BME280;55524;51.380;13.372;2024-03-25T05:46:41;99352.25;;;4.61;100.00
68525;BME280;55524;51.380;13.372;2024-03-25T05:49:08;99355.78;;;4.60;100.00
68525;BME280;55524;51.380;13.372;2024-03-25T05:51:34;99358.38;;;4.60;100.00
68525;BME280;55524;51.380;13.372;2024-03-25T05:54:01;99370.56;;;4.61;100.00
68525;BME280;55524;51.380;13.372;2024-03-25T05:56:27;99363.53;;;4.63;100.00
68525;BME280;55524;51.380;13.372;2024-03-25T05:58:59;99374.03;;;4.62;100.00
68525;BME280;55524;51.380;13.372;2024-03-25T06:01:26;99374.94;;;4.61;100.00
68525;BME280;55524;51.380;13.372;2024-03-25T06:03:52;99377.34;;;4.67;100.00
68525;BME280;55524;51.380;13.372;2024-03-25T06:06:19;99380.94;;;4.64;100.00
68525;BME280;55524;51.380;13.372;2024-03-25T06:08:45;99380.88;;;4.66;100.00
68525;BME280;55524;51.380;13.372;2024-03-25T06:11:12;99385.19;;;4.67;100.00
68525;BME280;55524;51.380;13.372;2024-03-25T06:13:38;99395.78;;;4.64;100.00
68525;BME280;55524;51.380;13.372;2024-03-25T06:16:04;99390.34;;;4.70;100.00
68525;BME280;55524;51.380;13.372;2024-03-25T06:18:31;99397.19;;;4.74;100.00
68525;BME280;55524;51.380;13.372;2024-03-25T06:20:57;99402.34;;;4.77;100.00
68525;BME280;55524;51.380;13.372;2024-03-25T06:23:28;99411.13;;;4.75;100.00
68525;BME280;55524;51.380;13.372;2024-03-25T06:25:55;99411.09;;;4.76;100.00
68525;BME280;55524;51.380;13.372;2024-03-25T06:28:22;99411.25;;;4.72;100.00
68525;BME280;55524;51.380;13.372;2024-03-25T06:30:49;99425.97;;;4.74;100.00
68525;BME280;55524;51.380;13.372;2024-03-25T06:33:34;99419.91;;;4.74;100.00
68525;BME280;55524;51.380;13.372;2024-03-25T06:36:20;99436.41;;;4.76;100.00
68525;BME280;55524;51.380;13.372;2024-03-25T06:38:46;99430.06;;;4.84;100.00
68525;BME280;55524;51.380;13.372;2024-03-25T06:41:12;99432.69;;;4.83;100.00
68525;BME280;55524;51.380;13.372;2024-03-25T06:43:39;99442.38;;;4.81;100.00
68525;BME280;55524;51.380;13.372;2024-03-25T06:46:06;99436.13;;;4.85;100.00
68525;BME280;55524;51.380;13.372;2024-03-25T06:48:33;99443.06;;;4.87;100.00
68525;BME280;55524;51.380;13.372;2024-03-25T06:51:00;99441.28;;;4.88;100.00
68525;BME280;55524;51.380;13.372;2024-03-25T06:53:29;99437.66;;;4.92;100.00
68525;BME280;55524;51.380;13.372;2024-03-25T06:55:58;99437.53;;;4.97;100.00
68525;BME280;55524;51.380;13.372;2024-03-25T06:58:25;99449.56;;;5.02;100.00
68525;BME280;55524;51.380;13.372;2024-03-25T07:00:52;99448.38;;;5.12;100.00
68525;BME280;55524;51.380;13.372;2024-03-25T07:03:20;99451.78;;;5.14;100.00
68525;BME280;55524;51.380;13.372;2024-03-25T07:05:51;99451.66;;;5.19;100.00
68525;BME280;55524;51.380;13.372;2024-03-25T07:08:21;99451.47;;;5.25;100.00
68525;BME280;55524;51.380;13.372;2024-03-25T07:10:47;99455.53;;;5.34;100.00
68525;BME280;55524;51.380;13.372;2024-03-25T07:13:14;99447.66;;;5.35;100.00
68525;BME280;55524;51.380;13.372;2024-03-25T07:15:40;99452.91;;;5.34;100.00
68525;BME280;55524;51.380;13.372;2024-03-25T07:18:08;99448.19;;;5.45;100.00
68525;BME280;55524;51.380;13.372;2024-03-25T07:20:37;99459.38;;;5.50;100.00
68525;BME280;55524;51.380;13.372;2024-03-25T07:23:04;99460.09;;;5.55;100.00
68525;BME280;55524;51.380;13.372;2024-03-25T07:25:30;99450.38;;;5.59;100.00
68525;BME280;55524;51.380;13.372;2024-03-25T07:27:56;99459.88;;;5.61;100.00
68525;BME280;55524;51.380;13.372;2024-03-25T07:30:23;99465.09;;;5.63;100.00
68525;BME280;55524;51.380;13.372;2024-03-25T07:32:57;99463.16;;;5.68;100.00
68525;BME280;55524;51.380;13.372;2024-03-25T07:35:24;99475.34;;;5.69;100.00
68525;BME280;55524;51.380;13.372;2024-03-25T07:37:50;99467.50;;;5.69;100.00
68525;BME280;55524;51.380;13.372;2024-03-25T07:40:18;99471.94;;;5.67;100.00
68525;BME280;55524;51.380;13.372;2024-03-25T07:42:44;99474.66;;;5.64;100.00
68525;BME280;55524;51.380;13.372;2024-03-25T07:45:11;99478.97;;;5.66;100.00
68525;BME280;55524;51.380;13.372;2024-03-25T07:47:37;99481.56;;;5.66;100.00
68525;BME280;55524;51.380;13.372;2024-03-25T07:50:04;99477.13;;;5.68;100.00
68525;BME280;55524;51.380;13.372;2024-03-25T07:52:32;99482.94;;;5.78;100.00
68525;BME280;55524;51.380;13.372;2024-03-25T07:54:58;99477.47;;;5.84;100.00
68525;BME280;55524;51.380;13.372;2024-03-25T07:57:25;99491.19;;;5.93;100.00
68525;BME280;55524;51.380;13.372;2024-03-25T07:59:51;99485.41;;;5.83;100.00
68525;BME280;55524;51.380;13.372;2024-03-25T08:02:17;99477.63;;;5.80;100.00
68525;BME280;55524;51.380;13.372;2024-03-25T08:04:43;99491.69;;;5.77;100.00
68525;BME280;55524;51.380;13.372;2024-03-25T08:07:10;99495.31;;;5.73;100.00
68525;BME280;55524;51.380;13.372;2024-03-25T08:09:36;99500.63;;;5.72;100.00
68525;BME280;55524;51.380;13.372;2024-03-25T08:12:02;99512.97;;;5.68;100.00
68525;BME280;55524;51.380;13.372;2024-03-25T08:14:29;99528.13;;;5.58;100.00
68525;BME280;55524;51.380;13.372;2024-03-25T08:16:55;99525.47;;;5.60;100.00
68525;BME280;55524;51.380;13.372;2024-03-25T08:19:21;99519.97;;;5.67;100.00
68525;BME280;55524;51.380;13.372;2024-03-25T08:21:48;99513.63;;;5.75;100.00
68525;BME280;55524;51.380;13.372;2024-03-25T08:24:14;99504.63;;;5.82;100.00
68525;BME280;55524;51.380;13.372;2024-03-25T08:26:41;99500.53;;;6.01;100.00
68525;BME280;55524;51.380;13.372;2024-03-25T08:29:08;99507.34;;;6.07;100.00
68525;BME280;55524;51.380;13.372;2024-03-25T08:31:34;99502.84;;;6.10;100.00
68525;BME280;55524;51.380;13.372;2024-03-25T08:34:00;99505.25;;;6.16;100.00
68525;BME280;55524;51.380;13.372;2024-03-25T08:36:26;99510.31;;;6.21;100.00
68525;BME280;55524;51.380;13.372;2024-03-25T08:38:53;99509.47;;;6.21;100.00
68525;BME280;55524;51.380;13.372;2024-03-25T08:41:19;99503.44;;;6.19;100.00
68525;BME280;55524;51.380;13.372;2024-03-25T08:43:45;99503.09;;;6.03;100.00
68525;BME280;55524;51.380;13.372;2024-03-25T08:46:12;99518.25;;;5.95;100.00
68525;BME280;55524;51.380;13.372;2024-03-25T08:48:38;99521.31;;;6.07;100.00
68525;BME280;55524;51.380;13.372;2024-03-25T08:51:04;99523.75;;;6.12;100.00
68525;BME280;55524;51.380;13.372;2024-03-25T08:53:30;99529.66;;;6.19;100.00
68525;BME280;55524;51.380;13.372;2024-03-25T08:55:57;99530.72;;;6.13;100.00
68525;BME280;55524;51.380;13.372;2024-03-25T08:58:23;99522.81;;;6.14;100.00
68525;BME280;55524;51.380;13.372;2024-03-25T09:00:49;99513.84;;;6.22;100.00
68525;BME280;55524;51.380;13.372;2024-03-25T09:03:15;99518.84;;;6.28;100.00
68525;BME280;55524;51.380;13.372;2024-03-25T09:05:42;99516.88;;;6.34;100.00
68525;BME280;55524;51.380;13.372;2024-03-25T09:08:08;99525.81;;;6.54;100.00
68525;BME280;55524;51.380;13.372;2024-03-25T09:10:37;99518.34;;;6.67;100.00
68525;BME280;55524;51.380;13.372;2024-03-25T09:13:22;99512.06;;;6.71;100.00
68525;BME280;55524;51.380;13.372;2024-03-25T09:15:49;99525.84;;;6.77;100.00
68525;BME280;55524;51.380;13.372;2024-03-25T09:18:16;99510.81;;;6.57;100.00
68525;BME280;55524;51.380;13.372;2024-03-25T09:20:43;99521.00;;;6.65;100.00
68525;BME280;55524;51.380;13.372;2024-03-25T09:23:10;99541.06;;;6.68;100.00
68525;BME280;55524;51.380;13.372;2024-03-25T09:25:36;99531.47;;;6.67;100.00
68525;BME280;55524;51.380;13.372;2024-03-25T09:28:02;99523.44;;;6.71;100.00
68525;BME280;55524;51.380;13.372;2024-03-25T09:30:28;99530.38;;;6.72;100.00
68525;BME280;55524;51.380;13.372;2024-03-25T09:32:55;99532.06;;;6.75;100.00
68525;BME280;55524;51.380;13.372;2024-03-25T09:35:21;99538.25;;;6.72;100.00
68525;BME280;55524;51.380;13.372;2024-03-25T09:37:47;99545.19;;;6.75;100.00
68525;BME280;55524;51.380;13.372;2024-03-25T09:40:14;99537.13;;;6.79;100.00
68525;BME280;55524;51.380;13.372;2024-03-25T09:42:55;99537.50;;;6.94;100.00
68525;BME280;55524;51.380;13.372;2024-03-25T09:45:24;99541.16;;;6.89;100.00
68525;BME280;55524;51.380;13.372;2024-03-25T09:47:51;99532.06;;;6.98;100.00
68525;BME280;55524;51.380;13.372;2024-03-25T09:50:18;99523.06;;;7.04;100.00
68525;BME280;55524;51.380;13.372;2024-03-25T09:52:47;99533.09;;;7.18;100.00
68525;BME280;55524;51.380;13.372;2024-03-25T09:55:14;99516.72;;;7.33;100.00
68525;BME280;55524;51.380;13.372;2024-03-25T09:57:45;99521.34;;;7.26;100.00
68525;BME280;55524;51.380;13.372;2024-03-25T10:00:12;99527.13;;;7.12;100.00
68525;BME280;55524;51.380;13.372;2024-03-25T10:02:40;99535.69;;;7.18;100.00
68525;BME280;55524;51.380;13.372;2024-03-25T10:05:07;99531.59;;;7.32;100.00
68525;BME280;55524;51.380;13.372;2024-03-25T10:07:34;99515.47;;;7.20;100.00
68525;BME280;55524;51.380;13.372;2024-03-25T10:10:07;99512.25;;;7.35;100.00
68525;BME280;55524;51.380;13.372;2024-03-25T10:12:35;99502.63;;;7.56;100.00
68525;BME280;55524;51.380;13.372;2024-03-25T10:15:04;99496.84;;;7.70;100.00
68525;BME280;55524;51.380;13.372;2024-03-25T10:17:31;99495.03;;;7.92;100.00
68525;BME280;55524;51.380;13.372;2024-03-25T10:19:58;99501.94;;;8.15;100.00
68525;BME280;55524;51.380;13.372;2024-03-25T10:22:24;99473.06;;;8.13;100.00
68525;BME280;55524;51.380;13.372;2024-03-25T10:24:50;99482.66;;;8.35;100.00
68525;BME280;55524;51.380;13.372;2024-03-25T10:27:21;99470.53;;;8.31;100.00
68525;BME280;55524;51.380;13.372;2024-03-25T10:29:52;99459.38;;;8.05;100.00
68525;BME280;55524;51.380;13.372;2024-03-25T10:32:19;99473.47;;;8.04;100.00
68525;BME280;55524;51.380;13.372;2024-03-25T10:34:45;99485.38;;;8.13;100.00
68525;BME280;55524;51.380;13.372;2024-03-25T10:37:12;99488.63;;;8.20;100.00
68525;BME280;55524;51.380;13.372;2024-03-25T10:39:47;99491.28;;;8.18;100.00
68525;BME280;55524;51.380;13.372;2024-03-25T10:42:19;99475.94;;;8.07;100.00
68525;BME280;55524;51.380;13.372;2024-03-25T10:44:49;99478.75;;;8.04;100.00
68525;BME280;55524;51.380;13.372;2024-03-25T10:47:21;99472.75;;;8.01;100.00
68525;BME280;55524;51.380;13.372;2024-03-25T10:49:58;99486.75;;;8.01;100.00
68525;BME280;55524;51.380;13.372;2024-03-25T10:52:26;99481.34;;;7.84;100.00
68525;BME280;55524;51.380;13.372;2024-03-25T10:54:55;99488.44;;;7.82;100.00
68525;BME280;55524;51.380;13.372;2024-03-25T10:57:22;99488.03;;;7.71;100.00
68525;BME280;55524;51.380;13.372;2024-03-25T10:59:49;99501.59;;;7.60;100.00
68525;BME280;55524;51.380;13.372;2024-03-25T11:02:16;99512.53;;;7.71;100.00
68525;BME280;55524;51.380;13.372;2024-03-25T11:04:46;99520.13;;;7.79;100.00
68525;BME280;55524;51.380;13.372;2024-03-25T11:07:15;99488.75;;;7.74;100.00
68525;BME280;55524;51.380;13.372;2024-03-25T11:09:42;99503.41;;;7.80;100.00
68525;BME280;55524;51.380;13.372;2024-03-25T11:12:13;99485.28;;;7.74;100.00
68525;BME280;55524;51.380;13.372;2024-03-25T11:14:39;99487.06;;;7.73;100.00
68525;BME280;55524;51.380;13.372;2024-03-25T11:17:15;99502.09;;;7.70;100.00
68525;BME280;55524;51.380;13.372;2024-03-25T11:19:42;99500.94;;;7.77;100.00
68525;BME280;55524;51.380;13.372;2024-03-25T11:22:09;99503.72;;;7.94;100.00
68525;BME280;55524;51.380;13.372;2024-03-25T11:24:36;99486.47;;;8.07;100.00
68525;BME280;55524;51.380;13.372;2024-03-25T11:27:07;99465.25;;;8.12;99.28
68525;BME280;55524;51.380;13.372;2024-03-25T11:29:33;99463.91;;;8.22;100.00
68525;BME280;55524;51.380;13.372;2024-03-25T11:32:06;99484.25;;;8.39;100.00
68525;BME280;55524;51.380;13.372;2024-03-25T11:34:35;99471.47;;;8.30;100.00
68525;BME280;55524;51.380;13.372;2024-03-25T11:37:01;99472.66;;;8.23;100.00
68525;BME280;55524;51.380;13.372;2024-03-25T11:39:28;99470.97;;;8.22;100.00
68525;BME280;55524;51.380;13.372;2024-03-25T11:41:54;99476.03;;;8.06;100.00
68525;BME280;55524;51.380;13.372;2024-03-25T11:44:21;99495.06;;;8.12;100.00
68525;BME280;55524;51.380;13.372;2024-03-25T11:46:51;99496.44;;;8.21;100.00
68525;BME280;55524;51.380;13.372;2024-03-25T11:49:21;99444.22;;;8.31;92.38
68525;BME280;55524;51.380;13.372;2024-03-25T11:51:47;99444.91;;;8.36;94.02
68525;BME280;55524;51.380;13.372;2024-03-25T11:54:14;99442.09;;;8.41;92.42
68525;BME280;55524;51.380;13.372;2024-03-25T11:56:41;99447.00;;;8.48;92.49
68525;BME280;55524;51.380;13.372;2024-03-25T11:59:09;99426.00;;;8.47;87.18
68525;BME280;55524;51.380;13.372;2024-03-25T12:01:37;99428.03;;;8.60;87.94
68525;BME280;55524;51.380;13.372;2024-03-25T12:04:17;99420.56;;;8.51;86.68
68525;BME280;55524;51.380;13.372;2024-03-25T12:06:47;99433.84;;;8.48;89.05
68525;BME280;55524;51.380;13.372;2024-03-25T12:09:13;99437.53;;;8.44;91.02
68525;BME280;55524;51.380;13.372;2024-03-25T12:11:58;99426.84;;;8.47;89.66
68525;BME280;55524;51.380;13.372;2024-03-25T12:14:25;99423.03;;;8.34;86.69
68525;BME280;55524;51.380;13.372;2024-03-25T12:16:56;99437.66;;;8.41;89.55
68525;BME280;55524;51.380;13.372;2024-03-25T12:19:25;99429.91;;;8.38;89.36
68525;BME280;55524;51.380;13.372;2024-03-25T12:21:58;99435.91;;;8.60;89.53
68525;BME280;55524;51.380;13.372;2024-03-25T12:24:25;99425.53;;;8.57;87.55
68525;BME280;55524;51.380;13.372;2024-03-25T12:26:51;99410.03;;;8.51;82.66
68525;BME280;55524;51.380;13.372;2024-03-25T12:29:18;99405.66;;;8.50;81.89
68525;BME280;55524;51.380;13.372;2024-03-25T12:31:57;99419.31;;;8.40;84.30
68525;BME280;55524;51.380;13.372;2024-03-25T12:34:26;99434.63;;;8.30;86.96
68525;BME280;55524;51.380;13.372;2024-03-25T12:37:00;99422.19;;;8.33;84.72
68525;BME280;55524;51.380;13.372;2024-03-25T12:39:26;99430.94;;;8.34;85.61
68525;BME280;55524;51.380;13.372;2024-03-25T12:41:53;99422.44;;;8.27;84.61
68525;BME280;55524;51.380;13.372;2024-03-25T12:44:20;99428.00;;;8.21;85.21
68525;BME280;55524;51.380;13.372;2024-03-25T12:46:46;99433.59;;;8.13;85.77
68525;BME280;55524;51.380;13.372;2024-03-25T12:49:12;99428.84;;;8.22;87.38
68525;BME280;55524;51.380;13.372;2024-03-25T12:51:39;99429.91;;;8.38;86.72